Flight Track Log - Related Links

Times and Time Zones

All times are in EDT time to prevent confusion due to time zone crossing. See the VH-OMM flight status page for this flight to view local times or setup timezone preferences in your user account.

Time Position Orientation Groundspeed Altitude Reporting Facility
EDT Latitude Longitude Course Direction KTS MPH feet Rate Location/Type
Wed 09:29:41 PM -27.5502 151.9626 87° East 115 132 3,100  Level Aus ATC (RADAR)
Wed 09:30:06 PM -27.5494 151.9795 87° East 125 144 3,400 857 Climbing Aus ATC (RADAR)
Wed 09:31:40 PM -27.5458 152.0487 87° East 140 161 4,800 807 Climbing Aus ATC (RADAR)
Wed 09:32:05 PM -27.5415 152.0666 75° East 139 160 5,000 900 Climbing Aus ATC (RADAR)
Wed 09:32:40 PM -27.5303 152.0889 60° Northeast 138 159 5,700 825 Climbing Aus ATC (RADAR)
Wed 09:33:25 PM -27.5151 152.1175 59° Northeast 141 162 6,100 600 Climbing Aus ATC (RADAR)
Wed 09:34:00 PM -27.5054 152.1421 66° East 147 169 6,500 635 Climbing Aus ATC (RADAR)
Wed 09:34:50 PM -27.4975 152.1781 76° East 143 165 7,000 320 Climbing Aus ATC (RADAR)
Wed 09:35:15 PM -27.4944 152.1972 80° East 145 167 6,900 -55 Descending Aus ATC (RADAR)
Wed 09:36:40 PM -27.4798 152.2538 74° East 129 148 6,900  Level Aus ATC (RADAR)
Wed 09:37:05 PM -27.4777 152.2701 82° East 127 146 6,900 100 Level Aus ATC (RADAR)
Wed 09:37:40 PM -27.4735 152.2927 78° East 125 144 7,000 75 Climbing Aus ATC (RADAR)
Wed 09:38:25 PM -27.4582 152.3031 31° Northeast 119 137 7,000  Level Aus ATC (RADAR)
Wed 09:39:00 PM -27.4626 152.2754 260° West 141 162 7,000  Level Aus ATC (RADAR)
Wed 09:39:50 PM -27.4758 152.2399 247° West 145 167 7,000  Level Aus ATC (RADAR)
Wed 09:40:15 PM -27.4814 152.2218 251° West 147 169 7,000  Level Aus ATC (RADAR)
Wed 09:41:40 PM -27.4960 152.2302 153° Southeast 120 138 7,000  Level Aus ATC (RADAR)
Wed 09:41:55 PM -27.4926 152.2397 68° East 124 143 7,000  Level Aus ATC (RADAR)
Wed 09:42:30 PM -27.4882 152.2612 77° East 121 139 7,000  Level Aus ATC (RADAR)
Wed 09:43:19 PM -27.4597 152.2678 12° North 141 162 7,000  Level Aus ATC (RADAR)
Wed 09:43:54 PM -27.4356 152.2647 353° North 148 170 7,000  Level Aus ATC (RADAR)
Wed 09:44:39 PM -27.4028 152.2616 355° North 156 180 7,000  Level Aus ATC (RADAR)
Wed 09:45:04 PM -27.3949 152.2817 66° East 170 196 7,000  Level Aus ATC (RADAR)
Wed 09:46:09 PM -27.4397 152.3069 153° Southeast 167 192 7,000  Level Aus ATC (RADAR)
Wed 09:46:39 PM -27.4628 152.3128 167° South 167 192 7,000  Level Aus ATC (RADAR)
Wed 09:47:04 PM -27.4817 152.3172 168° South 167 192 7,000 100 Level Aus ATC (RADAR)
Wed 09:47:39 PM -27.5030 152.3310 150° Southeast 162 186 7,100  Climbing Aus ATC (RADAR)
Wed 09:48:29 PM -27.4872 152.3708 66° East 156 180 7,000 -71 Descending Aus ATC (RADAR)
Wed 09:49:04 PM -27.4786 152.3960 69° East 148 170 7,000  Level Aus ATC (RADAR)
Wed 09:49:49 PM -27.4669 152.4294 68° East 149 171 7,000  Level Aus ATC (RADAR)
Wed 09:50:14 PM -27.4601 152.4475 67° East 148 170 7,000  Level Aus ATC (RADAR)
Wed 09:51:19 PM -27.4480 152.4971 75° East 152 175 7,000 -67 Level Aus ATC (RADAR)
Wed 09:51:44 PM -27.4434 152.5166 75° East 152 175 6,900 -480 Descending Aus ATC (RADAR)
Wed 09:52:09 PM -27.4389 152.5373 76° East 158 182 6,600 -600 Descending Aus ATC (RADAR)
Wed 09:52:44 PM -27.4314 152.5672 74° East 166 191 6,300 -500 Descending Aus ATC (RADAR)
Wed 09:53:33 PM -27.4246 152.6122 80° East 170 196 5,900 -357 Descending Aus ATC (RADAR)
Wed 09:54:08 PM -27.4220 152.6427 85° East 166 191 5,800 -375 Descending Aus ATC (RADAR)
Wed 09:54:53 PM -27.4170 152.6820 82° East 166 191 5,400 -640 Descending Aus ATC (RADAR)
Wed 09:55:23 PM -27.4139 152.7086 83° East 168 193 5,000 -776 Descending Aus ATC (RADAR)
Wed 09:56:18 PM -27.4087 152.7594 83° East 176 203 4,300 -675 Descending Aus ATC (RADAR)
Wed 09:56:43 PM -27.4064 152.7829 84° East 177 204 4,100 -480 Descending Aus ATC (RADAR)
Wed 09:57:08 PM -27.4041 152.8053 83° East 172 198 3,900 -100 Descending Aus ATC (RADAR)
Wed 09:57:43 PM -27.4013 152.8356 84° East 166 191 4,000 -450 Climbing Aus ATC (RADAR)
Wed 09:58:28 PM -27.3982 152.8742 85° East 166 191 3,300 -1,350 Descending Aus ATC (RADAR)
Wed 09:59:03 PM -27.3917 152.9084 78° East 182 209 2,200 -675 Descending Aus ATC (RADAR)
Wed 09:59:48 PM -27.3661 152.9415 49° Northeast 181 208 2,400 80 Climbing Aus ATC (RADAR)
Wed 10:00:18 PM -27.3517 152.9621 52° Northeast 170 196 2,300 -646 Descending Aus ATC (RADAR)
Wed 10:00:53 PM -27.3338 152.9872 51° Northeast 174 200 1,700 -480 Descending Aus ATC (RADAR)
Wed 10:01:58 PM -27.3021 153.0325 52° Northeast 165 190 1,500 -200 Descending Aus ATC (RADAR)
Wed 10:02:23 PM -27.2930 153.0470 54° Northeast 142 163 1,400 -500 Descending Aus ATC (RADAR)
Wed 10:02:58 PM -27.2950 153.0718 95° East 138 159 1,000 -571 Descending Aus ATC (RADAR)
Wed 10:03:47 PM -27.3163 153.0932 138° Southeast 121 139 600 -429 Descending Aus ATC (RADAR)
Wed 10:04:22 PM -27.3312 153.1055 144° Southeast 112 129 400 -300 Descending Aus ATC (RADAR)
Wed 10:05:07 PM -27.3485 153.1188 146° Southeast 98 113 200 -267 Descending Aus ATC (RADAR)

Login

Don't have an account? Register now (free) for customized features, flight alerts, and more!